createdAt,value
2019-02-23T00:00:30.506Z,10.00
2019-02-23T00:01:30.489Z,10.20
2019-02-23T00:02:30.496Z,9.50
2019-02-23T00:03:30.471Z,9.80
2019-02-23T00:04:30.461Z,9.90
2019-02-23T00:05:30.442Z,9.20
2019-02-23T00:06:30.443Z,9.80
2019-02-23T00:07:30.456Z,9.80
2019-02-23T00:08:30.437Z,9.60
2019-02-23T00:09:30.405Z,10.30
2019-02-23T00:10:30.390Z,9.80
2019-02-23T00:11:30.381Z,9.30
2019-02-23T00:12:30.371Z,9.70
2019-02-23T00:13:30.378Z,9.20
2019-02-23T00:14:30.347Z,9.70
2019-02-23T00:15:30.344Z,9.20
2019-02-23T00:16:30.342Z,9.60
2019-02-23T00:17:30.343Z,9.40
2019-02-23T00:18:30.335Z,9.20
2019-02-23T00:19:30.296Z,9.30
2019-02-23T00:20:30.320Z,9.30
2019-02-23T00:21:30.267Z,9.40
2019-02-23T00:22:30.258Z,9.20
2019-02-23T00:23:30.299Z,9.30
2019-02-23T00:24:30.253Z,9.20
2019-02-23T00:25:30.229Z,9.10
2019-02-23T00:26:30.217Z,8.90
2019-02-23T00:27:30.209Z,9.00
2019-02-23T00:28:30.208Z,9.00
2019-02-23T00:29:30.203Z,9.00
2019-02-23T00:30:30.175Z,9.10
2019-02-23T00:31:30.200Z,9.00
2019-02-23T00:32:30.156Z,9.00
2019-02-23T00:33:30.149Z,9.10
2019-02-23T00:34:30.159Z,8.80
2019-02-23T00:35:30.134Z,8.80
2019-02-23T00:36:30.117Z,8.70
2019-02-23T00:37:30.095Z,9.10
2019-02-23T00:38:30.107Z,8.70
2019-02-23T00:39:30.095Z,8.90
2019-02-23T00:40:30.071Z,8.30
2019-02-23T00:41:30.148Z,8.70
2019-02-23T00:42:30.049Z,9.00
2019-02-23T00:43:30.112Z,8.90
2019-02-23T00:44:30.054Z,8.50
2019-02-23T00:45:30.010Z,8.70
2019-02-23T00:46:30.002Z,9.20
2019-02-23T00:47:29.996Z,8.70
2019-02-23T00:48:29.975Z,8.90
2019-02-23T00:49:36.417Z,8.50
2019-02-23T00:50:30.982Z,8.40
2019-02-23T00:51:29.944Z,8.80
2019-02-23T00:52:29.935Z,8.40
2019-02-23T00:53:29.931Z,8.90
2019-02-23T00:54:29.910Z,8.00
2019-02-23T00:55:29.942Z,8.30
2019-02-23T00:56:29.905Z,8.30
2019-02-23T00:57:29.883Z,8.60
2019-02-23T00:58:29.868Z,8.80
2019-02-23T00:59:29.865Z,8.40
2019-02-23T01:00:29.876Z,8.20
2019-02-23T01:01:29.834Z,7.80
2019-02-23T01:02:29.826Z,8.10
2019-02-23T01:03:29.812Z,8.90
2019-02-23T01:04:29.807Z,8.30
2019-02-23T01:05:29.792Z,8.40
2019-02-23T01:06:29.802Z,8.30
2019-02-23T01:07:29.777Z,8.40
2019-02-23T01:08:29.757Z,8.50
2019-02-23T01:09:29.745Z,7.80
2019-02-23T01:10:29.738Z,8.30
2019-02-23T01:11:29.745Z,8.00
2019-02-23T01:12:29.717Z,8.10
2019-02-23T01:13:29.702Z,8.10
2019-02-23T01:14:29.696Z,8.20
2019-02-23T01:15:29.682Z,8.50
2019-02-23T01:16:29.707Z,8.10
2019-02-23T01:17:29.663Z,7.60
2019-02-23T01:18:29.649Z,8.00
2019-02-23T01:19:29.649Z,8.10
2019-02-23T01:20:29.629Z,7.90
2019-02-23T01:21:29.624Z,8.10
2019-02-23T01:22:29.640Z,7.60
2019-02-23T01:23:29.600Z,7.60
2019-02-23T01:24:29.585Z,8.40
2019-02-23T01:25:29.574Z,8.50
2019-02-23T01:26:29.559Z,8.40
2019-02-23T01:27:29.576Z,8.10
2019-02-23T01:28:29.571Z,7.70
2019-02-23T01:29:29.526Z,7.80
2019-02-23T01:30:29.519Z,8.00
2019-02-23T01:31:29.511Z,7.90
2019-02-23T01:32:29.536Z,8.20
2019-02-23T01:33:29.482Z,8.70
2019-02-23T01:34:29.478Z,8.20
2019-02-23T01:35:29.466Z,7.60
2019-02-23T01:36:29.450Z,7.90
2019-02-23T01:37:29.459Z,7.60
2019-02-23T01:38:29.446Z,7.90
2019-02-23T01:39:29.420Z,8.20
2019-02-23T01:40:29.415Z,7.80
2019-02-23T01:41:29.404Z,7.70
2019-02-23T01:42:29.388Z,7.50
2019-02-23T01:43:29.396Z,7.90
2019-02-23T01:44:29.373Z,7.90
2019-02-23T01:45:29.355Z,7.60
2019-02-23T01:46:29.344Z,7.70
2019-02-23T01:47:29.334Z,7.60
2019-02-23T01:48:29.368Z,7.90
2019-02-23T01:49:29.313Z,8.30
2019-02-23T01:50:29.310Z,7.90
2019-02-23T01:51:29.293Z,8.50
2019-02-23T01:52:29.280Z,7.90
2019-02-23T01:53:29.269Z,7.40
2019-02-23T01:54:29.279Z,7.70
2019-02-23T01:55:29.255Z,7.60
2019-02-23T01:56:29.235Z,8.10
2019-02-23T01:57:29.239Z,7.90
2019-02-23T01:58:29.210Z,7.80
2019-02-23T01:59:29.227Z,7.80
2019-02-23T02:00:29.197Z,7.50
2019-02-23T02:01:29.191Z,8.10
2019-02-23T02:02:29.177Z,8.10
2019-02-23T02:03:29.185Z,7.60
2019-02-23T02:04:29.164Z,8.00
2019-02-23T02:05:29.145Z,7.60
2019-02-23T02:06:29.129Z,7.70
2019-02-23T02:07:29.116Z,7.80
2019-02-23T02:08:29.104Z,7.50
2019-02-23T02:09:29.123Z,8.00
2019-02-23T02:10:29.098Z,7.20
2019-02-23T02:11:29.071Z,7.60
2019-02-23T02:12:29.078Z,8.00
2019-02-23T02:13:29.053Z,7.80
2019-02-23T02:14:29.091Z,7.60
2019-02-23T02:15:29.042Z,7.70
2019-02-23T02:16:29.029Z,8.40
2019-02-23T02:17:29.008Z,7.90
2019-02-23T02:18:28.998Z,7.70
2019-02-23T02:19:28.994Z,7.70
2019-02-23T02:20:28.997Z,7.80
2019-02-23T02:21:28.970Z,7.30
2019-02-23T02:22:28.951Z,7.80
2019-02-23T02:23:28.937Z,7.70
2019-02-23T02:24:28.938Z,7.90
2019-02-23T02:25:28.943Z,7.50
2019-02-23T02:26:28.911Z,7.70
2019-02-23T02:27:28.904Z,7.50
2019-02-23T02:28:28.889Z,7.50
2019-02-23T02:29:28.875Z,7.50
2019-02-23T02:30:28.864Z,8.10
2019-02-23T02:31:28.872Z,7.80
2019-02-23T02:32:28.847Z,7.60
2019-02-23T02:33:28.826Z,7.90
2019-02-23T02:34:28.822Z,7.70
2019-02-23T02:35:28.808Z,7.90
2019-02-23T02:36:28.828Z,7.60
2019-02-23T02:37:28.783Z,7.40
2019-02-23T02:38:28.774Z,7.40
2019-02-23T02:39:28.773Z,7.10
2019-02-23T02:40:28.796Z,7.80
2019-02-23T02:41:28.763Z,7.60
2019-02-23T02:42:28.748Z,7.80
2019-02-23T02:43:28.742Z,7.50
2019-02-23T02:44:28.712Z,7.70
2019-02-23T02:45:28.700Z,8.20
2019-02-23T02:46:28.686Z,7.80
2019-02-23T02:47:28.696Z,7.90
2019-02-23T02:48:28.671Z,7.90
2019-02-23T02:49:28.659Z,8.00
2019-02-23T02:50:28.643Z,7.60
2019-02-23T02:51:28.650Z,8.00
2019-02-23T02:52:28.647Z,7.80
2019-02-23T02:53:28.615Z,7.50
2019-02-23T02:54:28.608Z,7.60
2019-02-23T02:55:28.585Z,8.00
2019-02-23T02:56:28.578Z,8.00
2019-02-23T02:57:28.585Z,8.10
2019-02-23T02:58:28.577Z,7.60
2019-02-23T02:59:28.546Z,8.00
2019-02-23T03:00:28.543Z,7.80
2019-02-23T03:01:28.544Z,7.80
2019-02-23T03:02:28.523Z,8.00
2019-02-23T03:03:28.519Z,8.10
2019-02-23T03:04:28.502Z,8.10
2019-02-23T03:05:28.506Z,7.90
2019-02-23T03:06:28.483Z,8.00
2019-02-23T03:07:28.465Z,7.70
2019-02-23T03:08:28.469Z,7.80
2019-02-23T03:09:28.474Z,8.30
2019-02-23T03:10:28.422Z,8.10
2019-02-23T03:11:28.422Z,8.00
2019-02-23T03:12:28.402Z,7.90
2019-02-23T03:13:28.395Z,8.10
2019-02-23T03:14:28.401Z,8.40
2019-02-23T03:15:28.370Z,8.20
2019-02-23T03:16:28.370Z,8.10
2019-02-23T03:17:28.356Z,8.20
2019-02-23T03:18:28.342Z,8.00
2019-02-23T03:19:28.351Z,7.80
2019-02-23T03:20:36.300Z,7.80
2019-02-23T03:21:29.315Z,7.40
2019-02-23T03:22:28.302Z,7.70
2019-02-23T03:23:28.285Z,8.20
2019-02-23T03:24:28.276Z,8.00
2019-02-23T03:25:28.292Z,8.20
2019-02-23T03:26:28.256Z,7.90
2019-02-23T03:27:28.239Z,7.80
2019-02-23T03:28:28.225Z,8.00
2019-02-23T03:29:28.223Z,7.90
2019-02-23T03:30:28.232Z,7.90
2019-02-23T03:31:28.261Z,7.80
2019-02-23T03:32:28.193Z,7.70
2019-02-23T03:33:28.203Z,7.70
2019-02-23T03:34:28.171Z,7.80
2019-02-23T03:35:28.162Z,8.10
2019-02-23T03:36:28.316Z,7.80
2019-02-23T03:37:28.135Z,7.80
2019-02-23T03:38:28.128Z,8.00
2019-02-23T03:39:28.124Z,7.70
2019-02-23T03:40:28.107Z,7.90
2019-02-23T03:41:28.169Z,8.30
2019-02-23T03:42:28.079Z,7.90
2019-02-23T03:43:28.073Z,7.70
2019-02-23T03:44:28.054Z,7.30
2019-02-23T03:45:28.041Z,7.80
2019-02-23T03:46:28.046Z,7.70
2019-02-23T03:47:28.067Z,7.80
2019-02-23T03:48:28.030Z,7.50
2019-02-23T03:49:28.003Z,7.70
2019-02-23T03:50:28.019Z,7.30
2019-02-23T03:51:27.989Z,7.80
2019-02-23T03:52:27.987Z,7.70
2019-02-23T03:53:27.963Z,8.10
2019-02-23T03:54:27.951Z,8.10
2019-02-23T03:55:27.936Z,7.70
2019-02-23T03:56:27.928Z,8.00
2019-02-23T03:57:27.940Z,7.30
2019-02-23T03:58:27.909Z,7.80
2019-02-23T03:59:27.900Z,7.70
2019-02-23T04:00:27.878Z,7.80
2019-02-23T04:01:27.894Z,7.50
2019-02-23T04:02:27.897Z,7.50
2019-02-23T04:03:27.848Z,7.70
2019-02-23T04:04:27.834Z,7.60
2019-02-23T04:05:27.828Z,7.40
2019-02-23T04:06:27.822Z,8.00
2019-02-23T04:07:27.803Z,7.90
2019-02-23T04:08:27.809Z,7.60
2019-02-23T04:09:27.794Z,7.70
2019-02-23T04:10:27.774Z,7.50
2019-02-23T04:11:27.785Z,8.20
2019-02-23T04:12:27.760Z,7.80
2019-02-23T04:13:27.771Z,7.60
2019-02-23T04:14:27.736Z,7.80
2019-02-23T04:15:27.724Z,8.00
2019-02-23T04:16:27.720Z,7.60
2019-02-23T04:17:27.693Z,7.40
2019-02-23T04:18:27.714Z,7.60
2019-02-23T04:19:27.682Z,7.50
2019-02-23T04:20:27.660Z,7.80
2019-02-23T04:21:27.649Z,8.20
2019-02-23T04:22:27.644Z,7.40
2019-02-23T04:23:27.631Z,7.60
2019-02-23T04:24:27.639Z,8.00
2019-02-23T04:25:27.629Z,7.50
2019-02-23T04:26:27.602Z,7.70
2019-02-23T04:27:27.587Z,8.00
2019-02-23T04:28:27.577Z,7.70
2019-02-23T04:29:27.565Z,7.90
2019-02-23T04:30:27.571Z,7.70
2019-02-23T04:31:27.544Z,7.70
2019-02-23T04:32:27.528Z,7.70
2019-02-23T04:33:27.518Z,7.80
2019-02-23T04:34:27.506Z,8.10
2019-02-23T04:35:27.625Z,7.60
2019-02-23T04:36:27.482Z,7.90
2019-02-23T04:37:27.477Z,7.60
2019-02-23T04:38:27.481Z,7.60
2019-02-23T04:39:27.459Z,7.90
2019-02-23T04:40:27.471Z,7.60
2019-02-23T04:41:27.439Z,8.20
2019-02-23T04:42:27.422Z,8.20
2019-02-23T04:43:27.425Z,7.40
2019-02-23T04:44:27.398Z,7.80
2019-02-23T04:45:27.411Z,7.80
2019-02-23T04:46:27.376Z,7.70
2019-02-23T04:47:27.379Z,7.80
2019-02-23T04:48:27.376Z,7.70
2019-02-23T04:49:27.344Z,8.10
2019-02-23T04:50:27.365Z,8.30
2019-02-23T04:51:27.326Z,8.10
2019-02-23T04:52:27.320Z,7.80
2019-02-23T04:53:27.302Z,8.10
2019-02-23T04:54:27.290Z,8.30
2019-02-23T04:55:27.313Z,7.80
2019-02-23T04:56:27.295Z,7.80
2019-02-23T04:57:27.255Z,8.20
2019-02-23T04:58:27.260Z,7.70
2019-02-23T04:59:27.238Z,7.80
2019-02-23T05:00:27.227Z,7.80
2019-02-23T05:01:27.242Z,7.80
2019-02-23T05:02:27.201Z,8.00
2019-02-23T05:03:27.196Z,7.90
2019-02-23T05:04:27.188Z,8.30
2019-02-23T05:05:27.181Z,8.10
2019-02-23T05:06:27.183Z,8.60
2019-02-23T05:07:27.153Z,7.90
2019-02-23T05:08:27.143Z,7.70
2019-02-23T05:09:27.124Z,8.50
2019-02-23T05:10:27.121Z,8.10
2019-02-23T05:11:27.132Z,8.40
2019-02-23T05:12:27.118Z,8.40
2019-02-23T05:13:27.081Z,7.90
2019-02-23T05:14:27.070Z,8.00
2019-02-23T05:15:27.058Z,8.20
2019-02-23T05:16:27.076Z,8.20
2019-02-23T05:17:27.041Z,8.40
2019-02-23T05:18:27.039Z,8.10
2019-02-23T05:19:27.031Z,7.70
2019-02-23T05:20:27.013Z,8.30
2019-02-23T05:21:27.129Z,8.20
2019-02-23T05:22:27.008Z,8.50
2019-02-23T05:23:26.990Z,8.00
2019-02-23T05:24:26.968Z,8.20
2019-02-23T05:25:26.958Z,8.30
2019-02-23T05:26:26.957Z,8.40
2019-02-23T05:27:26.934Z,8.00
2019-02-23T05:28:26.918Z,8.30
2019-02-23T05:29:26.912Z,8.20
2019-02-23T05:30:26.901Z,7.90
2019-02-23T05:31:26.923Z,8.50
2019-02-23T05:32:26.872Z,8.10
2019-02-23T05:33:27.491Z,8.00
2019-02-23T05:34:26.849Z,8.50
2019-02-23T05:35:26.839Z,8.50
2019-02-23T05:36:26.836Z,8.50
2019-02-23T05:37:26.841Z,8.70
2019-02-23T05:38:26.817Z,8.40
2019-02-23T05:39:26.797Z,8.60
2019-02-23T05:40:26.793Z,8.70
2019-02-23T05:41:26.777Z,8.70
2019-02-23T05:42:26.803Z,8.90
2019-02-23T05:43:26.751Z,8.90
2019-02-23T05:44:26.742Z,8.60
2019-02-23T05:45:26.736Z,8.30
2019-02-23T05:46:26.728Z,8.50
2019-02-23T05:47:26.744Z,8.30
2019-02-23T05:48:26.704Z,8.70
2019-02-23T05:49:26.693Z,8.60
2019-02-23T05:50:26.679Z,8.10
2019-02-23T05:51:38.096Z,8.40
2019-02-23T05:52:27.693Z,8.60
2019-02-23T05:53:26.646Z,8.10
2019-02-23T05:54:26.641Z,8.30
2019-02-23T05:55:26.625Z,8.10
2019-02-23T05:56:26.626Z,8.90
2019-02-23T05:57:26.599Z,8.10
2019-02-23T05:58:26.618Z,8.90
2019-02-23T05:59:26.587Z,8.50
2019-02-23T06:00:26.571Z,8.20
2019-02-23T06:01:26.558Z,7.90
2019-02-23T06:02:26.554Z,8.10
2019-02-23T06:03:26.558Z,8.40
2019-02-23T06:04:26.522Z,8.40
2019-02-23T06:05:26.540Z,8.30
2019-02-23T06:06:26.500Z,8.70
2019-02-23T06:07:26.514Z,8.50
2019-02-23T06:08:26.489Z,8.50
2019-02-23T06:09:26.472Z,8.70
2019-02-23T06:10:26.458Z,8.10
2019-02-23T06:11:26.481Z,8.50
2019-02-23T06:12:26.457Z,8.70
2019-02-23T06:13:26.426Z,8.40
2019-02-23T06:14:26.422Z,8.60
2019-02-23T06:15:26.409Z,8.80
2019-02-23T06:16:26.408Z,8.70
2019-02-23T06:17:26.408Z,8.80
2019-02-23T06:18:26.370Z,8.70
2019-02-23T06:19:26.362Z,8.90
2019-02-23T06:20:26.358Z,9.10
2019-02-23T06:21:26.337Z,8.70
2019-02-23T06:22:26.362Z,8.80
2019-02-23T06:23:26.323Z,9.00
2019-02-23T06:24:26.304Z,9.10
2019-02-23T06:25:26.306Z,8.70
2019-02-23T06:26:26.288Z,8.70
2019-02-23T06:27:26.275Z,8.70
2019-02-23T06:28:26.282Z,8.50
2019-02-23T06:29:26.257Z,8.70
2019-02-23T06:30:26.244Z,8.80
2019-02-23T06:31:26.230Z,8.60
2019-02-23T06:32:26.249Z,8.90
2019-02-23T06:33:26.208Z,8.60
2019-02-23T06:34:26.214Z,8.80
2019-02-23T06:35:26.208Z,8.40
2019-02-23T06:36:26.176Z,8.90
2019-02-23T06:37:26.181Z,8.60
2019-02-23T06:38:26.176Z,9.00
2019-02-23T06:39:26.143Z,8.60
2019-02-23T06:40:26.136Z,9.30
2019-02-23T06:41:26.135Z,8.90
2019-02-23T06:42:26.118Z,9.00
2019-02-23T06:43:26.116Z,9.40
2019-02-23T06:44:26.092Z,8.80
2019-02-23T06:45:26.092Z,8.40
2019-02-23T06:46:26.073Z,8.90
2019-02-23T06:47:26.058Z,9.40
2019-02-23T06:48:26.076Z,9.10
2019-02-23T06:49:26.031Z,9.20
2019-02-23T06:50:26.033Z,8.80
2019-02-23T06:51:26.017Z,9.40
2019-02-23T06:52:26.000Z,8.50
2019-02-23T06:53:26.014Z,9.10
2019-02-23T06:54:25.987Z,9.00
2019-02-23T06:55:25.975Z,8.80
2019-02-23T06:56:25.977Z,9.40
2019-02-23T06:57:25.948Z,8.80
2019-02-23T06:58:25.963Z,9.10
2019-02-23T06:59:25.945Z,9.10
2019-02-23T07:00:25.917Z,9.30
2019-02-23T07:01:25.905Z,9.20
2019-02-23T07:02:25.894Z,8.90
2019-02-23T07:03:25.910Z,9.60
2019-02-23T07:04:25.878Z,9.70
2019-02-23T07:05:25.861Z,9.00
2019-02-23T07:06:25.858Z,9.90
2019-02-23T07:07:25.838Z,9.60
2019-02-23T07:08:25.863Z,9.50
2019-02-23T07:09:25.825Z,9.40
2019-02-23T07:10:25.814Z,9.30
2019-02-23T07:11:25.792Z,9.20
2019-02-23T07:12:25.782Z,9.50
2019-02-23T07:13:25.791Z,9.30
2019-02-23T07:14:25.762Z,9.10
2019-02-23T07:15:25.783Z,9.60
2019-02-23T07:16:25.746Z,9.40
2019-02-23T07:17:25.729Z,9.70
2019-02-23T07:18:25.742Z,9.40
2019-02-23T07:19:25.706Z,9.10
2019-02-23T07:20:25.698Z,9.40
2019-02-23T07:21:25.690Z,9.90
2019-02-23T07:22:25.675Z,9.40
2019-02-23T07:23:25.696Z,9.90
2019-02-23T07:24:25.660Z,9.60
2019-02-23T07:25:25.643Z,10.10
2019-02-23T07:26:25.638Z,9.40
2019-02-23T07:27:25.628Z,9.90
2019-02-23T07:28:25.644Z,9.50
2019-02-23T07:29:25.598Z,9.50
2019-02-23T07:30:25.586Z,9.40
2019-02-23T07:31:25.581Z,9.40
2019-02-23T07:32:25.566Z,9.20
2019-02-23T07:33:32.750Z,9.60
2019-02-23T07:34:26.551Z,10.00
2019-02-23T07:35:25.536Z,9.30
2019-02-23T07:36:25.521Z,9.40
2019-02-23T07:37:25.514Z,9.70
2019-02-23T07:38:25.500Z,9.60
2019-02-23T07:39:25.527Z,9.50
2019-02-23T07:40:25.479Z,9.30
2019-02-23T07:41:25.466Z,9.40
2019-02-23T07:42:25.460Z,9.20
2019-02-23T07:43:25.448Z,9.70
2019-02-23T07:44:25.467Z,10.30
2019-02-23T07:45:25.425Z,10.00
2019-02-23T07:46:25.418Z,10.20
2019-02-23T07:47:25.400Z,10.80
2019-02-23T07:48:25.428Z,11.10
2019-02-23T07:49:25.411Z,10.90
2019-02-23T07:50:25.367Z,9.80
2019-02-23T07:51:25.360Z,10.20
2019-02-23T07:52:26.660Z,9.60
2019-02-23T07:53:25.341Z,10.00
2019-02-23T07:54:25.356Z,9.80
2019-02-23T07:55:25.335Z,10.00
2019-02-23T07:56:25.313Z,10.40
2019-02-23T07:57:25.289Z,9.80
2019-02-23T07:58:25.296Z,9.90
2019-02-23T07:59:25.299Z,10.70
2019-02-23T08:00:25.270Z,10.50
2019-02-23T08:01:25.247Z,10.40
2019-02-23T08:02:25.917Z,10.20
2019-02-23T08:03:25.225Z,10.70
2019-02-23T08:04:25.214Z,10.30
2019-02-23T08:05:25.222Z,10.40
2019-02-23T08:06:25.198Z,10.50
2019-02-23T08:07:25.184Z,10.40
2019-02-23T08:08:25.172Z,10.60
2019-02-23T08:09:25.162Z,10.70
2019-02-23T08:10:25.168Z,10.70
2019-02-23T08:11:25.140Z,10.70
2019-02-23T08:12:25.137Z,10.20
2019-02-23T08:13:25.136Z,11.10
2019-02-23T08:14:25.127Z,10.50
2019-02-23T08:15:25.112Z,10.60
2019-02-23T08:16:25.088Z,10.80
2019-02-23T08:17:25.075Z,11.00
2019-02-23T08:18:25.062Z,11.10
2019-02-23T08:19:25.075Z,11.00
2019-02-23T08:20:25.044Z,11.40
2019-02-23T08:21:25.033Z,11.50
2019-02-23T08:22:25.036Z,11.60
2019-02-23T08:23:25.018Z,11.50
2019-02-23T08:24:25.098Z,11.60
2019-02-23T08:25:24.992Z,11.80
2019-02-23T08:26:24.977Z,12.00
2019-02-23T08:27:24.979Z,12.50
2019-02-23T08:28:24.956Z,12.10
2019-02-23T08:29:24.977Z,11.30
2019-02-23T08:30:24.935Z,12.70
2019-02-23T08:31:24.924Z,12.40
2019-02-23T08:32:24.947Z,12.30
2019-02-23T08:33:24.909Z,12.00
2019-02-23T08:34:24.922Z,12.00
2019-02-23T08:35:24.882Z,12.80
2019-02-23T08:36:24.879Z,11.70
2019-02-23T08:37:24.857Z,12.50
2019-02-23T08:38:24.865Z,12.40
2019-02-23T08:39:24.877Z,12.00
2019-02-23T08:40:24.848Z,12.00
2019-02-23T08:41:24.836Z,12.70
2019-02-23T08:42:24.806Z,12.70
2019-02-23T08:43:24.796Z,12.70
2019-02-23T08:44:24.806Z,12.90
2019-02-23T08:45:24.775Z,13.20
2019-02-23T08:46:24.776Z,13.10
2019-02-23T08:47:24.759Z,13.30
2019-02-23T08:48:24.737Z,13.00
2019-02-23T08:49:24.852Z,13.00
2019-02-23T08:50:24.712Z,12.90
2019-02-23T08:51:24.704Z,13.10
2019-02-23T08:52:24.708Z,13.10
2019-02-23T08:53:24.683Z,12.60
2019-02-23T08:54:24.726Z,12.90
2019-02-23T08:55:24.676Z,13.90
2019-02-23T08:56:24.674Z,14.00
2019-02-23T08:57:24.651Z,13.50
2019-02-23T08:58:24.675Z,13.60
2019-02-23T08:59:24.619Z,13.50
2019-02-23T09:00:24.625Z,14.10
2019-02-23T09:01:24.614Z,14.20
2019-02-23T09:02:24.592Z,14.60
2019-02-23T09:03:24.587Z,14.30
2019-02-23T09:04:24.566Z,14.50
2019-02-23T09:05:24.584Z,15.20
2019-02-23T09:06:24.544Z,15.90
2019-02-23T09:07:24.543Z,16.20
2019-02-23T09:08:24.538Z,16.20
2019-02-23T09:09:24.520Z,16.10
2019-02-23T09:10:24.537Z,15.40
2019-02-23T09:11:24.505Z,14.90
2019-02-23T09:12:24.483Z,14.90
2019-02-23T09:13:24.476Z,15.20
2019-02-23T09:14:24.462Z,15.80
2019-02-23T09:15:24.460Z,15.20
2019-02-23T09:16:24.472Z,15.70
2019-02-23T09:17:24.425Z,15.70
2019-02-23T09:18:24.414Z,16.00
2019-02-23T09:19:24.410Z,15.40
2019-02-23T09:20:29.290Z,15.60
2019-02-23T09:21:25.399Z,15.70
2019-02-23T09:22:24.428Z,16.10
2019-02-23T09:23:24.365Z,15.80
2019-02-23T09:24:24.352Z,15.70
2019-02-23T09:25:24.344Z,15.70
2019-02-23T09:26:24.383Z,15.90
2019-02-23T09:27:24.337Z,15.80
2019-02-23T09:28:24.308Z,15.90
2019-02-23T09:29:24.304Z,16.20
2019-02-23T09:30:24.293Z,16.70
2019-02-23T09:31:24.324Z,16.00
2019-02-23T09:32:24.299Z,16.50
2019-02-23T09:33:24.254Z,16.70
2019-02-23T09:34:24.238Z,16.70
2019-02-23T09:35:24.234Z,16.90
2019-02-23T09:36:24.216Z,16.20
2019-02-23T09:37:24.234Z,16.20
2019-02-23T09:38:24.218Z,16.10
2019-02-23T09:39:24.199Z,16.40
2019-02-23T09:40:24.176Z,16.00
2019-02-23T09:41:24.178Z,16.00
2019-02-23T09:42:24.172Z,16.00
2019-02-23T09:43:24.331Z,15.90
2019-02-23T09:44:26.819Z,15.60
2019-02-23T09:45:24.121Z,15.40
2019-02-23T09:46:24.105Z,14.80
2019-02-23T09:47:24.100Z,15.50
2019-02-23T09:48:24.083Z,15.30
2019-02-23T09:49:24.101Z,14.80
2019-02-23T09:50:24.106Z,14.30
2019-02-23T09:51:24.054Z,13.50
2019-02-23T09:52:24.040Z,13.00
2019-02-23T09:53:24.028Z,12.90
2019-02-23T09:54:24.024Z,13.10
2019-02-23T09:55:24.031Z,12.90
2019-02-23T09:56:24.033Z,13.10
2019-02-23T09:57:24.015Z,12.60
2019-02-23T09:58:23.976Z,13.60
2019-02-23T09:59:23.964Z,12.90
2019-02-23T10:00:23.975Z,13.40
2019-02-23T10:01:23.973Z,13.30
2019-02-23T10:02:23.928Z,13.20
2019-02-23T10:03:23.935Z,13.10
2019-02-23T10:04:23.925Z,13.10
2019-02-23T10:06:18.513Z,13.50
2019-02-23T10:07:18.483Z,13.40
2019-02-23T10:08:18.473Z,12.90
2019-02-23T10:09:18.472Z,13.40
2019-02-23T10:10:18.454Z,13.20
2019-02-23T10:11:18.477Z,13.30
2019-02-23T10:12:18.435Z,13.20
2019-02-23T10:13:18.419Z,12.80
2019-02-23T10:14:18.418Z,13.30
2019-02-23T10:15:18.413Z,13.40
2019-02-23T10:16:18.387Z,13.40
2019-02-23T10:17:18.395Z,13.70
2019-02-23T10:18:18.366Z,13.80
2019-02-23T10:19:18.360Z,14.80
2019-02-23T10:20:18.355Z,14.20
2019-02-23T10:21:18.334Z,14.90
2019-02-23T10:22:18.342Z,14.30
2019-02-23T10:23:22.061Z,14.30
2019-02-23T10:24:18.295Z,14.30
2019-02-23T10:25:18.290Z,14.20
2019-02-23T10:26:18.302Z,13.70
2019-02-23T10:27:18.348Z,12.70
2019-02-23T10:28:18.253Z,13.10
2019-02-23T10:29:18.257Z,13.10
2019-02-23T10:30:18.228Z,13.10
2019-02-23T10:31:18.224Z,12.70
2019-02-23T10:32:18.234Z,12.90
2019-02-23T10:33:18.237Z,12.80
2019-02-23T10:34:18.188Z,13.80
2019-02-23T10:35:18.194Z,14.70
2019-02-23T10:36:18.166Z,14.60
2019-02-23T10:37:18.162Z,15.80
2019-02-23T10:38:18.157Z,14.80
2019-02-23T10:39:18.138Z,14.80
2019-02-23T10:40:25.724Z,14.80
2019-02-23T10:41:18.111Z,14.90
2019-02-23T10:42:18.100Z,14.50
2019-02-23T10:43:18.112Z,14.70
2019-02-23T10:44:18.076Z,14.80
2019-02-23T10:45:18.068Z,14.30
2019-02-23T10:46:18.061Z,14.50
2019-02-23T10:47:18.045Z,14.20
2019-02-23T10:48:18.068Z,14.30
2019-02-23T10:49:18.040Z,14.20
2019-02-23T10:50:18.030Z,14.50
2019-02-23T10:51:18.001Z,14.30
2019-02-23T10:52:17.988Z,13.60
2019-02-23T10:53:17.979Z,14.10
2019-02-23T10:54:17.975Z,13.60
2019-02-23T10:55:17.992Z,14.50
2019-02-23T10:56:17.944Z,14.30
2019-02-23T10:57:17.936Z,14.60
2019-02-23T10:58:17.919Z,14.90
2019-02-23T10:59:17.921Z,14.20
2019-02-23T11:00:17.944Z,14.70
2019-02-23T11:01:17.892Z,14.40
2019-02-23T11:02:17.898Z,14.50
2019-02-23T11:03:17.871Z,14.30
2019-02-23T11:04:17.861Z,14.90
2019-02-23T11:05:17.855Z,14.90
2019-02-23T11:06:17.851Z,14.00
2019-02-23T11:07:17.845Z,14.60
2019-02-23T11:08:17.810Z,13.90
2019-02-23T11:09:17.803Z,14.10
2019-02-23T11:10:17.806Z,13.80
2019-02-23T11:11:17.783Z,14.40
2019-02-23T11:12:17.816Z,13.50
2019-02-23T11:13:17.802Z,14.30
2019-02-23T11:14:17.745Z,14.10
2019-02-23T11:15:17.736Z,14.30
2019-02-23T11:16:17.723Z,13.80
2019-02-23T11:17:17.747Z,14.10
2019-02-23T11:18:17.702Z,14.40
2019-02-23T11:19:17.695Z,14.00
2019-02-23T11:20:17.679Z,14.60
2019-02-23T11:21:17.672Z,13.90
2019-02-23T11:22:17.688Z,14.60
2019-02-23T11:23:17.663Z,13.90
2019-02-23T11:24:18.403Z,12.60
2019-02-23T11:25:17.667Z,11.80
2019-02-23T11:26:17.615Z,12.10
2019-02-23T11:27:17.607Z,11.70
2019-02-23T11:28:17.607Z,12.50
2019-02-23T11:29:17.584Z,12.60
2019-02-23T11:30:17.580Z,11.40
2019-02-23T11:31:17.568Z,11.00
2019-02-23T11:32:17.592Z,11.00
2019-02-23T11:33:17.536Z,10.80
2019-02-23T11:34:17.557Z,12.20
2019-02-23T11:35:17.894Z,12.40
2019-02-23T11:36:17.501Z,12.00
2019-02-23T11:37:17.493Z,12.00
2019-02-23T11:38:17.548Z,11.80
2019-02-23T11:39:25.063Z,12.80
2019-02-23T11:40:17.545Z,12.30
2019-02-23T11:41:17.451Z,12.40
2019-02-23T11:42:17.444Z,12.40
2019-02-23T11:43:17.453Z,12.40
2019-02-23T11:44:17.418Z,12.70
2019-02-23T11:45:17.409Z,12.20
2019-02-23T11:46:17.393Z,12.40
2019-02-23T11:47:17.477Z,11.70
2019-02-23T11:48:17.403Z,12.10
2019-02-23T11:49:17.375Z,12.00
2019-02-23T11:50:17.351Z,11.90
2019-02-23T11:51:17.359Z,11.90
2019-02-23T11:52:17.366Z,12.20
2019-02-23T11:53:17.342Z,12.30
2019-02-23T11:54:17.308Z,12.10
2019-02-23T11:55:17.298Z,11.60
2019-02-23T11:56:17.287Z,12.00
2019-02-23T11:57:17.283Z,12.30
2019-02-23T11:58:17.285Z,11.50
2019-02-23T11:59:17.259Z,11.70
2019-02-23T12:00:25.143Z,11.60
2019-02-23T12:01:17.234Z,11.70
2019-02-23T12:02:17.225Z,11.50
2019-02-23T12:03:17.255Z,11.20
2019-02-23T12:04:17.200Z,11.20
2019-02-23T12:05:17.185Z,11.10
2019-02-23T12:06:17.175Z,11.40
2019-02-23T12:07:17.289Z,11.80
2019-02-23T12:08:17.177Z,11.60
2019-02-23T12:09:17.144Z,11.60
2019-02-23T12:10:17.140Z,11.90
2019-02-23T12:11:17.119Z,12.20
2019-02-23T12:12:17.111Z,12.30
2019-02-23T12:13:17.128Z,12.20
2019-02-23T12:14:17.088Z,12.00
2019-02-23T12:15:17.080Z,11.20
2019-02-23T12:16:17.074Z,11.10
2019-02-23T12:17:17.059Z,11.90
2019-02-23T12:18:17.053Z,13.00
2019-02-23T12:19:17.647Z,12.70
2019-02-23T12:20:17.043Z,12.90
2019-02-23T12:21:17.016Z,12.90
2019-02-23T12:22:17.011Z,13.60
2019-02-23T12:23:17.009Z,13.50
2019-02-23T12:24:16.982Z,13.10
2019-02-23T12:25:16.971Z,13.10
2019-02-23T12:26:16.990Z,13.20
2019-02-23T12:27:16.955Z,12.60
2019-02-23T12:28:16.981Z,12.80
2019-02-23T12:29:16.925Z,13.50
2019-02-23T12:30:16.919Z,12.70
2019-02-23T12:31:16.974Z,13.10
2019-02-23T12:32:16.899Z,13.30
2019-02-23T12:33:16.900Z,13.40
2019-02-23T12:34:16.871Z,13.40
2019-02-23T12:35:16.870Z,13.30
2019-02-23T12:36:16.854Z,13.10
2019-02-23T12:37:16.845Z,13.50
2019-02-23T12:38:16.860Z,13.40
2019-02-23T12:39:16.820Z,13.70
2019-02-23T12:40:16.840Z,13.20
2019-02-23T12:41:16.806Z,13.70
2019-02-23T12:42:16.788Z,12.70
2019-02-23T12:43:16.792Z,12.90
2019-02-23T12:44:16.772Z,12.90
2019-02-23T12:45:16.754Z,13.20
2019-02-23T12:46:16.756Z,12.50
2019-02-23T12:47:16.728Z,12.80
2019-02-23T12:48:16.759Z,12.70
2019-02-23T12:49:16.711Z,12.70
2019-02-23T12:50:16.703Z,13.30
2019-02-23T12:51:16.688Z,12.70
2019-02-23T12:52:16.679Z,12.70
2019-02-23T12:53:16.699Z,12.50
2019-02-23T12:54:17.209Z,12.40
2019-02-23T12:55:16.641Z,12.50
2019-02-23T12:56:16.637Z,12.60
2019-02-23T12:57:16.619Z,12.20
2019-02-23T12:58:17.145Z,12.00
2019-02-23T12:59:16.603Z,11.40
2019-02-23T13:00:16.617Z,11.40
2019-02-23T13:01:16.574Z,11.90
2019-02-23T13:02:16.591Z,11.40
2019-02-23T13:03:16.555Z,12.10
2019-02-23T13:04:16.567Z,11.70
2019-02-23T13:05:16.543Z,10.90
2019-02-23T13:06:16.529Z,11.00
2019-02-23T13:07:16.516Z,10.90
2019-02-23T13:08:16.524Z,11.10